PWSweather.com
Personal Weather Stations
Station Observations
SUBOTICARS
SuboticaYU

SuboticaYU

Lat: 46.1296717, Lon: 19.641551

Elevation: 361

Station Type: Nexus

http://sumeteo.info

High Low Average
Temperature 35.2°F1.8°C 28.9°F-1.7°C 31.8°F-0.1°C
Dew Point 28.5°F-1.9°C 20.7°F-6.3°C 25.5°F-3.6°C
Winds 5.8 mph 9.3 kmh Calm Calm 3.0 mph E4.8 kmh E
Wind Gusts 6.9 mph11.1 kmh 1.2 mph1.9 kmh 3.0 mph4.8 kmh
Humidity 88% 70% 77%
Pressure 29.82 in1009.8 mb 29.71 in1006.1 mb -
Precipitation 0.01 in0.3 mm - -
Hour Temp Dew Point Humidity Winds Wind Gusts Pressure Precip Precip Rate Daily Precip Total
12:00 AM 30.7°F-0.7°C 24.7°F-4.1°C 78% 3.5 mph NNW5.6 kmh NNW 3.5 mph5.6 kmh 29.80 in1009.1 mb - 0.00 in0.0 mm 0.00 in0.0 mm
12:10 AM 30.7°F-0.7°C 24.1°F-4.4°C 76% 2.3 mph NW3.7 kmh NW 3.5 mph5.6 kmh 29.80 in1009.1 mb - 0.00 in0.0 mm 0.00 in0.0 mm
12:15 AM 30.6°F-0.8°C 24.2°F-4.3°C 77% 3.5 mph NNW5.6 kmh NNW 3.5 mph5.6 kmh 29.80 in1009.1 mb - 0.00 in0.0 mm 0.00 in0.0 mm
12:20 AM 30.4°F-0.9°C 24.3°F-4.3°C 78% 2.3 mph NW3.7 kmh NW 3.5 mph5.6 kmh 29.80 in1009.1 mb - 0.00 in0.0 mm 0.00 in0.0 mm
12:25 AM 30.4°F-0.9°C 24.3°F-4.3°C 78% 2.3 mph N3.7 kmh N 2.3 mph3.7 kmh 29.80 in1009.1 mb - 0.00 in0.0 mm 0.00 in0.0 mm
12:30 AM 30.2°F-1.0°C 24.2°F-4.3°C 78% Calm Calm 1.2 mph1.9 kmh 29.79 in1008.8 mb - 0.00 in0.0 mm 0.00 in0.0 mm
12:35 AM 30.2°F-1.0°C 24.2°F-4.3°C 78% 1.2 mph NNW1.9 kmh NNW 1.2 mph1.9 kmh 29.79 in1008.8 mb - 0.00 in0.0 mm 0.00 in0.0 mm
12:40 AM 29.9°F-1.2°C 23.9°F-4.5°C 78% 1.2 mph WNW1.9 kmh WNW 1.2 mph1.9 kmh 29.79 in1008.8 mb - 0.00 in0.0 mm 0.00 in0.0 mm
12:45 AM 29.7°F-1.3°C 23.6°F-4.7°C 78% 1.2 mph NW1.9 kmh NW 1.2 mph1.9 kmh 29.80 in1009.1 mb - 0.00 in0.0 mm 0.00 in0.0 mm
12:50 AM 29.5°F-1.4°C 23.5°F-4.7°C 78% 1.2 mph NNW1.9 kmh NNW 2.3 mph3.7 kmh 29.80 in1009.1 mb - 0.00 in0.0 mm 0.00 in0.0 mm
12:55 AM 29.7°F-1.3°C 23.6°F-4.7°C 78% 2.3 mph N3.7 kmh N 2.3 mph3.7 kmh 29.80 in1009.1 mb - 0.00 in0.0 mm 0.00 in0.0 mm
01:00 AM 29.7°F-1.3°C 23.6°F-4.7°C 78% 2.3 mph NNE3.7 kmh NNE 2.3 mph3.7 kmh 29.80 in1009.1 mb - 0.00 in0.0 mm 0.00 in0.0 mm
01:10 AM 29.5°F-1.4°C 23.8°F-4.6°C 79% 3.5 mph NW5.6 kmh NW 3.5 mph5.6 kmh 29.80 in1009.1 mb - 0.00 in0.0 mm 0.00 in0.0 mm
01:15 AM 29.7°F-1.3°C 23.9°F-4.5°C 79% 3.5 mph NNE5.6 kmh NNE 3.5 mph5.6 kmh 29.80 in1009.1 mb - 0.00 in0.0 mm 0.00 in0.0 mm
01:20 AM 30.0°F-1.1°C 24.3°F-4.3°C 79% 3.5 mph N5.6 kmh N 3.5 mph5.6 kmh 29.80 in1009.1 mb - 0.00 in0.0 mm 0.00 in0.0 mm
01:25 AM 30.2°F-1.0°C 24.2°F-4.3°C 78% 3.5 mph NE5.6 kmh NE 3.5 mph5.6 kmh 29.80 in1009.1 mb - 0.00 in0.0 mm 0.00 in0.0 mm
01:30 AM 30.4°F-0.9°C 24.3°F-4.3°C 78% 2.3 mph NNW3.7 kmh NNW 2.3 mph3.7 kmh 29.80 in1009.1 mb - 0.00 in0.0 mm 0.00 in0.0 mm
01:35 AM 30.2°F-1.0°C 24.2°F-4.3°C 78% 3.5 mph NE5.6 kmh NE 3.5 mph5.6 kmh 29.80 in1009.1 mb - 0.00 in0.0 mm 0.00 in0.0 mm
01:40 AM 30.2°F-1.0°C 23.5°F-4.7°C 76% 2.3 mph NE3.7 kmh NE 3.5 mph5.6 kmh 29.80 in1009.1 mb - 0.00 in0.0 mm 0.00 in0.0 mm
01:45 AM 30.2°F-1.0°C 23.5°F-4.7°C 76% 1.2 mph NNE1.9 kmh NNE 2.3 mph3.7 kmh 29.80 in1009.1 mb - 0.00 in0.0 mm 0.00 in0.0 mm
01:50 AM 30.2°F-1.0°C 23.5°F-4.7°C 76% 1.2 mph NNW1.9 kmh NNW 2.3 mph3.7 kmh 29.80 in1009.1 mb - 0.00 in0.0 mm 0.00 in0.0 mm
01:55 AM 30.0°F-1.1°C 23.4°F-4.8°C 76% 2.3 mph NNW3.7 kmh NNW 2.3 mph3.7 kmh 29.80 in1009.1 mb - 0.00 in0.0 mm 0.00 in0.0 mm
02:00 AM 30.0°F-1.1°C 23.4°F-4.8°C 76% 3.5 mph N5.6 kmh N 3.5 mph5.6 kmh 29.80 in1009.1 mb - 0.00 in0.0 mm 0.00 in0.0 mm
02:10 AM 30.1°F-1.1°C 23.4°F-4.8°C 76% 2.3 mph NNW3.7 kmh NNW 3.5 mph5.6 kmh 29.80 in1009.1 mb - 0.00 in0.0 mm 0.00 in0.0 mm
02:15 AM 30.0°F-1.1°C 23.4°F-4.8°C 76% 3.5 mph N5.6 kmh N 3.5 mph5.6 kmh 29.80 in1009.1 mb - 0.00 in0.0 mm 0.00 in0.0 mm
02:20 AM 30.2°F-1.0°C 23.5°F-4.7°C 76% 2.3 mph N3.7 kmh N 3.5 mph5.6 kmh 29.80 in1009.1 mb - 0.00 in0.0 mm 0.00 in0.0 mm
02:25 AM 30.0°F-1.1°C 23.4°F-4.8°C 76% 1.2 mph NW1.9 kmh NW 3.5 mph5.6 kmh 29.80 in1009.1 mb - 0.00 in0.0 mm 0.00 in0.0 mm
02:30 AM 30.0°F-1.1°C 23.4°F-4.8°C 76% 2.3 mph NNW3.7 kmh NNW 3.5 mph5.6 kmh 29.80 in1009.1 mb - 0.00 in0.0 mm 0.00 in0.0 mm
02:35 AM 29.9°F-1.2°C 22.9°F-5.1°C 75% 2.3 mph NNW3.7 kmh NNW 3.5 mph5.6 kmh 29.80 in1009.1 mb - 0.00 in0.0 mm 0.00 in0.0 mm
02:40 AM 29.8°F-1.2°C 22.9°F-5.1°C 75% 2.3 mph NW3.7 kmh NW 3.5 mph5.6 kmh 29.80 in1009.1 mb - 0.00 in0.0 mm 0.00 in0.0 mm
02:45 AM 29.9°F-1.2°C 22.9°F-5.1°C 75% 3.5 mph NNW5.6 kmh NNW 3.5 mph5.6 kmh 29.80 in1009.1 mb - 0.00 in0.0 mm 0.00 in0.0 mm
02:50 AM 29.8°F-1.2°C 22.9°F-5.1°C 75% 4.6 mph NNW7.4 kmh NNW 5.8 mph9.3 kmh 29.80 in1009.1 mb - 0.00 in0.0 mm 0.00 in0.0 mm
02:55 AM 29.8°F-1.2°C 22.9°F-5.1°C 75% 3.5 mph NNW5.6 kmh NNW 3.5 mph5.6 kmh 29.80 in1009.1 mb - 0.00 in0.0 mm 0.00 in0.0 mm
03:00 AM 30.0°F-1.1°C 23.1°F-4.9°C 75% 3.5 mph N5.6 kmh N 3.5 mph5.6 kmh 29.80 in1009.1 mb - 0.00 in0.0 mm 0.00 in0.0 mm
03:10 AM 30.0°F-1.1°C 22.7°F-5.2°C 74% 2.3 mph NE3.7 kmh NE 3.5 mph5.6 kmh 29.80 in1009.1 mb - 0.00 in0.0 mm 0.00 in0.0 mm
03:15 AM 30.0°F-1.1°C 22.4°F-5.3°C 73% 3.5 mph N5.6 kmh N 3.5 mph5.6 kmh 29.79 in1008.8 mb - 0.00 in0.0 mm 0.00 in0.0 mm
03:20 AM 30.0°F-1.1°C 22.4°F-5.3°C 73% 2.3 mph NNW3.7 kmh NNW 3.5 mph5.6 kmh 29.79 in1008.8 mb - 0.00 in0.0 mm 0.00 in0.0 mm
03:25 AM 30.0°F-1.1°C 22.4°F-5.3°C 73% 3.5 mph NNE5.6 kmh NNE 3.5 mph5.6 kmh 29.79 in1008.8 mb - 0.00 in0.0 mm 0.00 in0.0 mm
03:30 AM 30.0°F-1.1°C 22.1°F-5.5°C 72% 3.5 mph NE5.6 kmh NE 3.5 mph5.6 kmh 29.79 in1008.8 mb - 0.00 in0.0 mm 0.00 in0.0 mm
03:35 AM 30.0°F-1.1°C 22.1°F-5.5°C 72% 3.5 mph NNE5.6 kmh NNE 4.6 mph7.4 kmh 29.79 in1008.8 mb - 0.00 in0.0 mm 0.00 in0.0 mm
03:40 AM 30.0°F-1.1°C 22.1°F-5.5°C 72% 2.3 mph N3.7 kmh N 3.5 mph5.6 kmh 29.79 in1008.8 mb - 0.00 in0.0 mm 0.00 in0.0 mm
03:45 AM 30.0°F-1.1°C 22.1°F-5.5°C 72% 4.6 mph N7.4 kmh N 4.6 mph7.4 kmh 29.78 in1008.5 mb - 0.00 in0.0 mm 0.00 in0.0 mm
03:50 AM 30.0°F-1.1°C 22.1°F-5.5°C 72% 3.5 mph NNW5.6 kmh NNW 3.5 mph5.6 kmh 29.78 in1008.5 mb - 0.00 in0.0 mm 0.00 in0.0 mm
03:55 AM 30.0°F-1.1°C 21.8°F-5.7°C 71% 2.3 mph NNE3.7 kmh NNE 3.5 mph5.6 kmh 29.78 in1008.5 mb - 0.00 in0.0 mm 0.00 in0.0 mm
04:00 AM 30.0°F-1.1°C 21.8°F-5.7°C 71% 3.5 mph 5.6 kmh 3.5 mph5.6 kmh 29.78 in1008.5 mb - 0.00 in0.0 mm 0.00 in0.0 mm
04:10 AM 29.9°F-1.2°C 21.3°F-5.9°C 70% 2.3 mph N3.7 kmh N 2.3 mph3.7 kmh 29.78 in1008.5 mb - 0.00 in0.0 mm 0.00 in0.0 mm
04:15 AM 29.8°F-1.2°C 21.2°F-6.0°C 70% 3.5 mph N5.6 kmh N 3.5 mph5.6 kmh 29.79 in1008.8 mb - 0.00 in0.0 mm 0.00 in0.0 mm
04:20 AM 29.7°F-1.3°C 21.1°F-6.1°C 70% 2.3 mph NE3.7 kmh NE 3.5 mph5.6 kmh 29.79 in1008.8 mb - 0.00 in0.0 mm 0.00 in0.0 mm
04:25 AM 29.5°F-1.4°C 21.2°F-6.0°C 71% 3.5 mph NNE5.6 kmh NNE 3.5 mph5.6 kmh 29.79 in1008.8 mb - 0.00 in0.0 mm 0.00 in0.0 mm
04:30 AM 29.3°F-1.5°C 20.7°F-6.3°C 70% 3.5 mph NNW5.6 kmh NNW 3.5 mph5.6 kmh 29.78 in1008.5 mb - 0.00 in0.0 mm 0.00 in0.0 mm
04:35 AM 29.3°F-1.5°C 21.1°F-6.1°C 71% 3.5 mph N5.6 kmh N 3.5 mph5.6 kmh 29.78 in1008.5 mb - 0.00 in0.0 mm 0.00 in0.0 mm
04:40 AM 29.3°F-1.5°C 21.1°F-6.1°C 71% 3.5 mph 5.6 kmh 3.5 mph5.6 kmh 29.78 in1008.5 mb - 0.00 in0.0 mm 0.00 in0.0 mm
04:45 AM 29.1°F-1.6°C 20.9°F-6.2°C 71% 2.3 mph NE3.7 kmh NE 3.5 mph5.6 kmh 29.78 in1008.5 mb - 0.00 in0.0 mm 0.00 in0.0 mm
04:50 AM 29.1°F-1.6°C 20.9°F-6.2°C 71% 2.3 mph N3.7 kmh N 3.5 mph5.6 kmh 29.78 in1008.5 mb - 0.00 in0.0 mm 0.00 in0.0 mm
04:55 AM 28.9°F-1.7°C 21.0°F-6.1°C 72% 2.3 mph NNE3.7 kmh NNE 2.3 mph3.7 kmh 29.78 in1008.5 mb - 0.00 in0.0 mm 0.00 in0.0 mm
05:00 AM 28.9°F-1.7°C 21.0°F-6.1°C 72% 2.3 mph N3.7 kmh N 3.5 mph5.6 kmh 29.78 in1008.5 mb - 0.00 in0.0 mm 0.00 in0.0 mm
05:10 AM 28.9°F-1.7°C 21.0°F-6.1°C 72% 3.5 mph NNW5.6 kmh NNW 3.5 mph5.6 kmh 29.78 in1008.5 mb - 0.00 in0.0 mm 0.00 in0.0 mm
05:15 AM 28.9°F-1.7°C 21.0°F-6.1°C 72% 2.3 mph NNW3.7 kmh NNW 3.5 mph5.6 kmh 29.78 in1008.5 mb - 0.00 in0.0 mm 0.00 in0.0 mm
05:20 AM 28.9°F-1.7°C 21.0°F-6.1°C 72% 2.3 mph 3.7 kmh 2.3 mph3.7 kmh 29.78 in1008.5 mb - 0.00 in0.0 mm 0.00 in0.0 mm
05:25 AM 28.9°F-1.7°C 21.4°F-5.9°C 73% 2.3 mph N3.7 kmh N 2.3 mph3.7 kmh 29.78 in1008.5 mb - 0.00 in0.0 mm 0.00 in0.0 mm
05:30 AM 28.9°F-1.7°C 21.4°F-5.9°C 73% 2.3 mph NNE3.7 kmh NNE 3.5 mph5.6 kmh 29.78 in1008.5 mb - 0.00 in0.0 mm 0.00 in0.0 mm
05:35 AM 28.9°F-1.7°C 21.4°F-5.9°C 73% 3.5 mph N5.6 kmh N 3.5 mph5.6 kmh 29.78 in1008.5 mb - 0.00 in0.0 mm 0.00 in0.0 mm
05:40 AM 28.9°F-1.7°C 21.4°F-5.9°C 73% 2.3 mph NNW3.7 kmh NNW 3.5 mph5.6 kmh 29.78 in1008.5 mb - 0.00 in0.0 mm 0.00 in0.0 mm
05:45 AM 29.1°F-1.6°C 21.5°F-5.8°C 73% 2.3 mph N3.7 kmh N 3.5 mph5.6 kmh 29.79 in1008.8 mb - 0.00 in0.0 mm 0.00 in0.0 mm
05:50 AM 29.1°F-1.6°C 21.5°F-5.8°C 73% 3.5 mph NNW5.6 kmh NNW 3.5 mph5.6 kmh 29.79 in1008.8 mb - 0.00 in0.0 mm 0.00 in0.0 mm
05:55 AM 29.1°F-1.6°C 21.5°F-5.8°C 73% 2.3 mph NNE3.7 kmh NNE 3.5 mph5.6 kmh 29.79 in1008.8 mb - 0.00 in0.0 mm 0.00 in0.0 mm
06:00 AM 29.1°F-1.6°C 21.5°F-5.8°C 73% 3.5 mph NE5.6 kmh NE 3.5 mph5.6 kmh 29.79 in1008.8 mb - 0.00 in0.0 mm 0.00 in0.0 mm
06:10 AM 29.1°F-1.6°C 21.5°F-5.8°C 73% 2.3 mph NNE3.7 kmh NNE 3.5 mph5.6 kmh 29.79 in1008.8 mb - 0.00 in0.0 mm 0.00 in0.0 mm
06:15 AM 29.1°F-1.6°C 21.5°F-5.8°C 73% 2.3 mph NNE3.7 kmh NNE 3.5 mph5.6 kmh 29.78 in1008.5 mb - 0.00 in0.0 mm 0.00 in0.0 mm
06:20 AM 29.3°F-1.5°C 22.0°F-5.6°C 74% 2.3 mph NNE3.7 kmh NNE 2.3 mph3.7 kmh 29.78 in1008.5 mb - 0.00 in0.0 mm 0.00 in0.0 mm
06:25 AM 29.3°F-1.5°C 22.0°F-5.6°C 74% 2.3 mph NE3.7 kmh NE 3.5 mph5.6 kmh 29.78 in1008.5 mb - 0.00 in0.0 mm 0.00 in0.0 mm
06:30 AM 29.3°F-1.5°C 22.0°F-5.6°C 74% 2.3 mph NNW3.7 kmh NNW 2.3 mph3.7 kmh 29.79 in1008.8 mb - 0.00 in0.0 mm 0.00 in0.0 mm
06:35 AM 29.5°F-1.4°C 22.2°F-5.4°C 74% 1.2 mph NNE1.9 kmh NNE 2.3 mph3.7 kmh 29.79 in1008.8 mb - 0.00 in0.0 mm 0.00 in0.0 mm
06:40 AM 29.5°F-1.4°C 22.2°F-5.4°C 74% 2.3 mph NNE3.7 kmh NNE 2.3 mph3.7 kmh 29.79 in1008.8 mb - 0.00 in0.0 mm 0.00 in0.0 mm
06:45 AM 29.5°F-1.4°C 22.2°F-5.4°C 74% 1.2 mph NNE1.9 kmh NNE 2.3 mph3.7 kmh 29.80 in1009.1 mb - 0.00 in0.0 mm 0.00 in0.0 mm
06:50 AM 29.7°F-1.3°C 22.4°F-5.3°C 74% 2.3 mph NNE3.7 kmh NNE 3.5 mph5.6 kmh 29.80 in1009.1 mb - 0.00 in0.0 mm 0.00 in0.0 mm
06:55 AM 29.7°F-1.3°C 22.4°F-5.3°C 74% 2.3 mph N3.7 kmh N 2.3 mph3.7 kmh 29.80 in1009.1 mb - 0.00 in0.0 mm 0.00 in0.0 mm
07:00 AM 29.8°F-1.2°C 22.6°F-5.2°C 74% 3.5 mph NE5.6 kmh NE 3.5 mph5.6 kmh 29.79 in1008.8 mb - 0.00 in0.0 mm 0.00 in0.0 mm
07:10 AM 29.8°F-1.2°C 22.6°F-5.2°C 74% 2.3 mph NNE3.7 kmh NNE 3.5 mph5.6 kmh 29.79 in1008.8 mb - 0.00 in0.0 mm 0.00 in0.0 mm
07:15 AM 30.0°F-1.1°C 22.7°F-5.2°C 74% 2.3 mph NE3.7 kmh NE 3.5 mph5.6 kmh 29.79 in1008.8 mb - 0.00 in0.0 mm 0.00 in0.0 mm
07:20 AM 30.0°F-1.1°C 22.7°F-5.2°C 74% 3.5 mph NE5.6 kmh NE 3.5 mph5.6 kmh 29.79 in1008.8 mb - 0.00 in0.0 mm 0.00 in0.0 mm
07:25 AM 30.0°F-1.1°C 22.7°F-5.2°C 74% 3.5 mph NE5.6 kmh NE 3.5 mph5.6 kmh 29.79 in1008.8 mb - 0.00 in0.0 mm 0.00 in0.0 mm
07:30 AM 30.2°F-1.0°C 22.9°F-5.1°C 74% 3.5 mph NNE5.6 kmh NNE 3.5 mph5.6 kmh 29.79 in1008.8 mb - 0.00 in0.0 mm 0.00 in0.0 mm
07:35 AM 30.2°F-1.0°C 22.9°F-5.1°C 74% 3.5 mph N5.6 kmh N 4.6 mph7.4 kmh 29.79 in1008.8 mb - 0.00 in0.0 mm 0.00 in0.0 mm
07:40 AM 30.3°F-0.9°C 22.7°F-5.2°C 73% 3.5 mph NE5.6 kmh NE 3.5 mph5.6 kmh 29.79 in1008.8 mb - 0.00 in0.0 mm 0.00 in0.0 mm
07:45 AM 30.4°F-0.9°C 22.8°F-5.1°C 73% 3.5 mph NNE5.6 kmh NNE 4.6 mph7.4 kmh 29.79 in1008.8 mb - 0.00 in0.0 mm 0.00 in0.0 mm
07:50 AM 30.4°F-0.9°C 23.1°F-4.9°C 74% 2.3 mph NE3.7 kmh NE 3.5 mph5.6 kmh 29.79 in1008.8 mb - 0.00 in0.0 mm 0.00 in0.0 mm
07:55 AM 30.4°F-0.9°C 23.1°F-4.9°C 74% 2.3 mph ENE3.7 kmh ENE 3.5 mph5.6 kmh 29.79 in1008.8 mb - 0.00 in0.0 mm 0.00 in0.0 mm
08:00 AM 30.4°F-0.9°C 23.1°F-4.9°C 74% 3.5 mph ENE5.6 kmh ENE 3.5 mph5.6 kmh 29.79 in1008.8 mb - 0.00 in0.0 mm 0.00 in0.0 mm
08:10 AM 30.6°F-0.8°C 23.3°F-4.8°C 74% 3.5 mph NE5.6 kmh NE 3.5 mph5.6 kmh 29.79 in1008.8 mb - 0.00 in0.0 mm 0.00 in0.0 mm
08:15 AM 30.6°F-0.8°C 23.3°F-4.8°C 74% 3.5 mph NE5.6 kmh NE 4.6 mph7.4 kmh 29.79 in1008.8 mb - 0.00 in0.0 mm 0.00 in0.0 mm
08:20 AM 30.6°F-0.8°C 23.3°F-4.8°C 74% 3.5 mph NE5.6 kmh NE 3.5 mph5.6 kmh 29.79 in1008.8 mb - 0.00 in0.0 mm 0.00 in0.0 mm
08:25 AM 30.7°F-0.7°C 23.8°F-4.6°C 75% 2.3 mph ENE3.7 kmh ENE 3.5 mph5.6 kmh 29.79 in1008.8 mb - 0.00 in0.0 mm 0.00 in0.0 mm
08:30 AM 30.7°F-0.7°C 23.8°F-4.6°C 75% 3.5 mph E5.6 kmh E 3.5 mph5.6 kmh 29.80 in1009.1 mb - 0.00 in0.0 mm 0.00 in0.0 mm
08:35 AM 30.9°F-0.6°C 23.9°F-4.5°C 75% 3.5 mph ENE5.6 kmh ENE 4.6 mph7.4 kmh 29.80 in1009.1 mb - 0.00 in0.0 mm 0.00 in0.0 mm
08:40 AM 30.9°F-0.6°C 23.9°F-4.5°C 75% 3.5 mph NE5.6 kmh NE 5.8 mph9.3 kmh 29.80 in1009.1 mb - 0.00 in0.0 mm 0.00 in0.0 mm
08:45 AM 31.1°F-0.5°C 24.1°F-4.4°C 75% 3.5 mph ENE5.6 kmh ENE 5.8 mph9.3 kmh 29.80 in1009.1 mb - 0.00 in0.0 mm 0.00 in0.0 mm
08:50 AM 31.1°F-0.5°C 24.1°F-4.4°C 75% 3.5 mph NE5.6 kmh NE 5.8 mph9.3 kmh 29.80 in1009.1 mb - 0.00 in0.0 mm 0.00 in0.0 mm
08:55 AM 31.3°F-0.4°C 24.6°F-4.1°C 76% 3.5 mph NE5.6 kmh NE 3.5 mph5.6 kmh 29.80 in1009.1 mb - 0.00 in0.0 mm 0.00 in0.0 mm
09:00 AM 31.3°F-0.4°C 24.6°F-4.1°C 76% 3.5 mph ENE5.6 kmh ENE 3.5 mph5.6 kmh 29.80 in1009.1 mb - 0.00 in0.0 mm 0.00 in0.0 mm
09:10 AM 31.3°F-0.4°C 24.6°F-4.1°C 76% 3.5 mph ENE5.6 kmh ENE 3.5 mph5.6 kmh 29.80 in1009.1 mb - 0.00 in0.0 mm 0.00 in0.0 mm
09:15 AM 31.5°F-0.3°C 24.8°F-4.0°C 76% 3.5 mph NE5.6 kmh NE 3.5 mph5.6 kmh 29.80 in1009.1 mb - 0.00 in0.0 mm 0.00 in0.0 mm
09:20 AM 31.5°F-0.3°C 24.8°F-4.0°C 76% 4.6 mph E7.4 kmh E 4.6 mph7.4 kmh 29.80 in1009.1 mb - 0.00 in0.0 mm 0.00 in0.0 mm
09:25 AM 31.5°F-0.3°C 24.8°F-4.0°C 76% 5.8 mph ENE9.3 kmh ENE 4.6 mph7.4 kmh 29.80 in1009.1 mb - 0.00 in0.0 mm 0.00 in0.0 mm
09:30 AM 31.6°F-0.2°C 24.9°F-3.9°C 76% 4.6 mph NE7.4 kmh NE 4.6 mph7.4 kmh 29.80 in1009.1 mb - 0.00 in0.0 mm 0.00 in0.0 mm
09:35 AM 31.6°F-0.2°C 24.9°F-3.9°C 76% 4.6 mph ENE7.4 kmh ENE 5.8 mph9.3 kmh 29.80 in1009.1 mb - 0.00 in0.0 mm 0.00 in0.0 mm
09:40 AM 31.8°F-0.1°C 25.1°F-3.8°C 76% 5.8 mph E9.3 kmh E 5.8 mph9.3 kmh 29.80 in1009.1 mb - 0.00 in0.0 mm 0.00 in0.0 mm
09:45 AM 31.8°F-0.1°C 25.1°F-3.8°C 76% 3.5 mph ENE5.6 kmh ENE 3.5 mph5.6 kmh 29.80 in1009.1 mb - 0.00 in0.0 mm 0.00 in0.0 mm
09:50 AM 32.0°F0.0°C 25.3°F-3.7°C 76% 3.5 mph NE5.6 kmh NE 4.6 mph7.4 kmh 29.80 in1009.1 mb - 0.00 in0.0 mm 0.00 in0.0 mm
09:55 AM 32.0°F0.0°C 25.3°F-3.7°C 76% 3.5 mph ENE5.6 kmh ENE 4.6 mph7.4 kmh 29.80 in1009.1 mb - 0.00 in0.0 mm 0.00 in0.0 mm
10:00 AM 32.0°F0.0°C 25.3°F-3.7°C 76% 4.6 mph ENE7.4 kmh ENE 5.8 mph9.3 kmh 29.81 in1009.5 mb - 0.00 in0.0 mm 0.00 in0.0 mm
10:10 AM 32.0°F0.0°C 25.3°F-3.7°C 76% 2.3 mph NE3.7 kmh NE 4.6 mph7.4 kmh 29.81 in1009.5 mb - 0.00 in0.0 mm 0.00 in0.0 mm
10:15 AM 32.0°F0.0°C 25.3°F-3.7°C 76% 3.5 mph ENE5.6 kmh ENE 4.6 mph7.4 kmh 29.82 in1009.8 mb - 0.00 in0.0 mm 0.00 in0.0 mm
10:20 AM 32.0°F0.0°C 25.3°F-3.7°C 76% 4.6 mph E7.4 kmh E 5.8 mph9.3 kmh 29.82 in1009.8 mb - 0.00 in0.0 mm 0.00 in0.0 mm
10:25 AM 32.2°F0.1°C 25.5°F-3.6°C 76% 2.3 mph E3.7 kmh E 2.3 mph3.7 kmh 29.82 in1009.8 mb - 0.00 in0.0 mm 0.00 in0.0 mm
10:30 AM 32.3°F0.2°C 25.6°F-3.6°C 76% 3.5 mph ENE5.6 kmh ENE 3.5 mph5.6 kmh 29.82 in1009.8 mb - 0.00 in0.0 mm 0.00 in0.0 mm
10:35 AM 32.4°F0.2°C 25.6°F-3.6°C 76% 3.5 mph ENE5.6 kmh ENE 3.5 mph5.6 kmh 29.82 in1009.8 mb - 0.00 in0.0 mm 0.00 in0.0 mm
10:40 AM 32.5°F0.3°C 25.8°F-3.4°C 76% 3.5 mph ENE5.6 kmh ENE 4.6 mph7.4 kmh 29.82 in1009.8 mb - 0.00 in0.0 mm 0.00 in0.0 mm
10:45 AM 32.7°F0.4°C 26.0°F-3.3°C 76% 3.5 mph ENE5.6 kmh ENE 4.6 mph7.4 kmh 29.81 in1009.5 mb - 0.00 in0.0 mm 0.00 in0.0 mm
10:50 AM 32.7°F0.4°C 26.0°F-3.3°C 76% 5.8 mph ENE9.3 kmh ENE 5.8 mph9.3 kmh 29.81 in1009.5 mb - 0.00 in0.0 mm 0.00 in0.0 mm
10:55 AM 32.9°F0.5°C 26.2°F-3.2°C 76% 4.6 mph E7.4 kmh E 5.8 mph9.3 kmh 29.81 in1009.5 mb - 0.00 in0.0 mm 0.00 in0.0 mm
11:00 AM 32.9°F0.5°C 26.2°F-3.2°C 76% 5.8 mph E9.3 kmh E 5.8 mph9.3 kmh 29.80 in1009.1 mb - 0.00 in0.0 mm 0.00 in0.0 mm
11:10 AM 32.9°F0.5°C 26.2°F-3.2°C 76% 3.5 mph E5.6 kmh E 3.5 mph5.6 kmh 29.80 in1009.1 mb - 0.00 in0.0 mm 0.00 in0.0 mm
11:15 AM 33.1°F0.6°C 26.3°F-3.2°C 76% 3.5 mph E5.6 kmh E 3.5 mph5.6 kmh 29.80 in1009.1 mb - 0.00 in0.0 mm 0.00 in0.0 mm
11:20 AM 33.3°F0.7°C 26.5°F-3.1°C 76% 4.6 mph E7.4 kmh E 4.6 mph7.4 kmh 29.80 in1009.1 mb - 0.00 in0.0 mm 0.00 in0.0 mm
11:25 AM 33.1°F0.6°C 26.0°F-3.3°C 75% 3.5 mph ENE5.6 kmh ENE 3.5 mph5.6 kmh 29.80 in1009.1 mb - 0.00 in0.0 mm 0.00 in0.0 mm
11:30 AM 33.2°F0.7°C 26.1°F-3.3°C 75% 4.6 mph ENE7.4 kmh ENE 4.6 mph7.4 kmh 29.80 in1009.1 mb - 0.00 in0.0 mm 0.00 in0.0 mm
11:35 AM 33.3°F0.7°C 26.2°F-3.2°C 75% 5.8 mph ESE9.3 kmh ESE 6.9 mph11.1 kmh 29.80 in1009.1 mb - 0.00 in0.0 mm 0.00 in0.0 mm
11:40 AM 33.6°F0.9°C 26.5°F-3.1°C 75% 3.5 mph E5.6 kmh E 3.5 mph5.6 kmh 29.80 in1009.1 mb - 0.00 in0.0 mm 0.00 in0.0 mm
11:45 AM 34.0°F1.1°C 26.9°F-2.8°C 75% 3.5 mph ENE5.6 kmh ENE 3.5 mph5.6 kmh 29.79 in1008.8 mb - 0.00 in0.0 mm 0.00 in0.0 mm
11:50 AM 34.0°F1.1°C 26.9°F-2.8°C 75% 3.5 mph NE5.6 kmh NE 6.9 mph11.1 kmh 29.79 in1008.8 mb - 0.00 in0.0 mm 0.00 in0.0 mm
11:55 AM 33.8°F1.0°C 26.4°F-3.1°C 74% 3.5 mph NE5.6 kmh NE 4.6 mph7.4 kmh 29.79 in1008.8 mb - 0.00 in0.0 mm 0.00 in0.0 mm
12:00 PM 33.8°F1.0°C 26.4°F-3.1°C 74% 4.6 mph E7.4 kmh E 5.8 mph9.3 kmh 29.80 in1009.1 mb - 0.00 in0.0 mm 0.00 in0.0 mm
12:10 PM 34.2°F1.2°C 26.7°F-2.9°C 74% 3.5 mph E5.6 kmh E 3.5 mph5.6 kmh 29.80 in1009.1 mb - 0.00 in0.0 mm 0.00 in0.0 mm
12:15 PM 34.2°F1.2°C 26.7°F-2.9°C 74% 3.5 mph ENE5.6 kmh ENE 3.5 mph5.6 kmh 29.79 in1008.8 mb - 0.00 in0.0 mm 0.00 in0.0 mm
12:20 PM 34.2°F1.2°C 26.7°F-2.9°C 74% 3.5 mph E5.6 kmh E 3.5 mph5.6 kmh 29.79 in1008.8 mb - 0.00 in0.0 mm 0.00 in0.0 mm
12:25 PM 34.3°F1.3°C 26.9°F-2.8°C 74% 4.6 mph NNE7.4 kmh NNE 5.8 mph9.3 kmh 29.79 in1008.8 mb - 0.00 in0.0 mm 0.00 in0.0 mm
12:30 PM 34.5°F1.4°C 27.1°F-2.7°C 74% 3.5 mph E5.6 kmh E 3.5 mph5.6 kmh 29.78 in1008.5 mb - 0.00 in0.0 mm 0.00 in0.0 mm
12:35 PM 34.7°F1.5°C 26.9°F-2.8°C 73% 3.5 mph E5.6 kmh E 3.5 mph5.6 kmh 29.78 in1008.5 mb - 0.00 in0.0 mm 0.00 in0.0 mm
12:40 PM 34.7°F1.5°C 26.9°F-2.8°C 73% 3.5 mph NNE5.6 kmh NNE 3.5 mph5.6 kmh 29.78 in1008.5 mb - 0.00 in0.0 mm 0.00 in0.0 mm
12:45 PM 34.9°F1.6°C 27.1°F-2.7°C 73% 3.5 mph E5.6 kmh E 5.8 mph9.3 kmh 29.78 in1008.5 mb - 0.00 in0.0 mm 0.00 in0.0 mm
12:50 PM 34.9°F1.6°C 27.1°F-2.7°C 73% 2.3 mph NE3.7 kmh NE 2.3 mph3.7 kmh 29.78 in1008.5 mb - 0.00 in0.0 mm 0.00 in0.0 mm
12:55 PM 34.9°F1.6°C 27.1°F-2.7°C 73% 4.6 mph ESE7.4 kmh ESE 4.6 mph7.4 kmh 29.78 in1008.5 mb - 0.00 in0.0 mm 0.00 in0.0 mm
01:00 PM 34.7°F1.5°C 26.6°F-3.0°C 72% 3.5 mph ESE5.6 kmh ESE 4.6 mph7.4 kmh 29.78 in1008.5 mb - 0.00 in0.0 mm 0.00 in0.0 mm
01:10 PM 34.9°F1.6°C 27.1°F-2.7°C 73% 3.5 mph ENE5.6 kmh ENE 3.5 mph5.6 kmh 29.78 in1008.5 mb - 0.00 in0.0 mm 0.00 in0.0 mm
01:15 PM 34.9°F1.6°C 27.1°F-2.7°C 73% 3.5 mph ENE5.6 kmh ENE 3.5 mph5.6 kmh 29.77 in1008.1 mb - 0.00 in0.0 mm 0.00 in0.0 mm
01:20 PM 34.9°F1.6°C 27.1°F-2.7°C 73% 3.5 mph ENE5.6 kmh ENE 3.5 mph5.6 kmh 29.77 in1008.1 mb - 0.00 in0.0 mm 0.00 in0.0 mm
01:25 PM 34.9°F1.6°C 27.1°F-2.7°C 73% 4.6 mph E7.4 kmh E 5.8 mph9.3 kmh 29.77 in1008.1 mb - 0.00 in0.0 mm 0.00 in0.0 mm
01:30 PM 35.1°F1.7°C 27.3°F-2.6°C 73% 3.5 mph E5.6 kmh E 4.6 mph7.4 kmh 29.77 in1008.1 mb - 0.00 in0.0 mm 0.00 in0.0 mm
01:35 PM 35.2°F1.8°C 27.4°F-2.6°C 73% 3.5 mph ENE5.6 kmh ENE 5.8 mph9.3 kmh 29.77 in1008.1 mb - 0.00 in0.0 mm 0.00 in0.0 mm
01:40 PM 35.1°F1.7°C 27.3°F-2.6°C 73% 3.5 mph NE5.6 kmh NE 4.6 mph7.4 kmh 29.77 in1008.1 mb - 0.00 in0.0 mm 0.00 in0.0 mm
01:45 PM 35.1°F1.7°C 27.3°F-2.6°C 73% 3.5 mph E5.6 kmh E 4.6 mph7.4 kmh 29.76 in1007.8 mb - 0.00 in0.0 mm 0.00 in0.0 mm
01:50 PM 35.1°F1.7°C 27.3°F-2.6°C 73% 3.5 mph ENE5.6 kmh ENE 4.6 mph7.4 kmh 29.76 in1007.8 mb - 0.00 in0.0 mm 0.00 in0.0 mm
01:55 PM 35.1°F1.7°C 27.3°F-2.6°C 73% 3.5 mph NE5.6 kmh NE 3.5 mph5.6 kmh 29.76 in1007.8 mb - 0.00 in0.0 mm 0.00 in0.0 mm
02:00 PM 35.1°F1.7°C 27.3°F-2.6°C 73% 3.5 mph ENE5.6 kmh ENE 3.5 mph5.6 kmh 29.76 in1007.8 mb - 0.00 in0.0 mm 0.00 in0.0 mm
02:10 PM 35.2°F1.8°C 27.4°F-2.6°C 73% 3.5 mph ENE5.6 kmh ENE 3.5 mph5.6 kmh 29.76 in1007.8 mb - 0.00 in0.0 mm 0.00 in0.0 mm
02:15 PM 35.2°F1.8°C 27.4°F-2.6°C 73% 4.6 mph ENE7.4 kmh ENE 4.6 mph7.4 kmh 29.76 in1007.8 mb - 0.00 in0.0 mm 0.00 in0.0 mm
02:20 PM 35.2°F1.8°C 27.4°F-2.6°C 73% 3.5 mph ESE5.6 kmh ESE 3.5 mph5.6 kmh 29.76 in1007.8 mb - 0.00 in0.0 mm 0.00 in0.0 mm
02:25 PM 35.1°F1.7°C 27.3°F-2.6°C 73% 4.6 mph E7.4 kmh E 5.8 mph9.3 kmh 29.76 in1007.8 mb - 0.00 in0.0 mm 0.00 in0.0 mm
02:30 PM 35.2°F1.8°C 27.4°F-2.6°C 73% 4.6 mph E7.4 kmh E 5.8 mph9.3 kmh 29.76 in1007.8 mb - 0.00 in0.0 mm 0.00 in0.0 mm
02:35 PM 35.1°F1.7°C 27.3°F-2.6°C 73% 3.5 mph ENE5.6 kmh ENE 3.5 mph5.6 kmh 29.76 in1007.8 mb - 0.00 in0.0 mm 0.00 in0.0 mm
02:40 PM 35.1°F1.7°C 27.6°F-2.4°C 74% 4.6 mph ENE7.4 kmh ENE 4.6 mph7.4 kmh 29.76 in1007.8 mb - 0.00 in0.0 mm 0.00 in0.0 mm
02:45 PM 34.9°F1.6°C 27.1°F-2.7°C 73% 4.6 mph E7.4 kmh E 5.8 mph9.3 kmh 29.76 in1007.8 mb - 0.00 in0.0 mm 0.00 in0.0 mm
02:50 PM 34.9°F1.6°C 27.1°F-2.7°C 73% 3.5 mph E5.6 kmh E 4.6 mph7.4 kmh 29.76 in1007.8 mb - 0.00 in0.0 mm 0.00 in0.0 mm
02:55 PM 34.8°F1.6°C 27.3°F-2.6°C 74% 3.5 mph NE5.6 kmh NE 4.6 mph7.4 kmh 29.76 in1007.8 mb - 0.00 in0.0 mm 0.00 in0.0 mm
03:00 PM 34.7°F1.5°C 27.3°F-2.6°C 74% 3.5 mph E5.6 kmh E 3.5 mph5.6 kmh 29.75 in1007.5 mb - 0.00 in0.0 mm 0.00 in0.0 mm
03:10 PM 34.7°F1.5°C 27.3°F-2.6°C 74% 3.5 mph ESE5.6 kmh ESE 3.5 mph5.6 kmh 29.75 in1007.5 mb - 0.00 in0.0 mm 0.00 in0.0 mm
03:15 PM 34.7°F1.5°C 27.3°F-2.6°C 74% 4.6 mph ESE7.4 kmh ESE 5.8 mph9.3 kmh 29.76 in1007.8 mb - 0.00 in0.0 mm 0.00 in0.0 mm
03:20 PM 34.5°F1.4°C 27.4°F-2.6°C 75% 4.6 mph E7.4 kmh E 5.8 mph9.3 kmh 29.76 in1007.8 mb - 0.00 in0.0 mm 0.00 in0.0 mm
03:25 PM 34.5°F1.4°C 27.4°F-2.6°C 75% 3.5 mph ENE5.6 kmh ENE 4.6 mph7.4 kmh 29.76 in1007.8 mb - 0.00 in0.0 mm 0.00 in0.0 mm
03:30 PM 34.5°F1.4°C 27.4°F-2.6°C 75% 3.5 mph E5.6 kmh E 3.5 mph5.6 kmh 29.76 in1007.8 mb - 0.00 in0.0 mm 0.00 in0.0 mm
03:35 PM 34.5°F1.4°C 27.4°F-2.6°C 75% 3.5 mph E5.6 kmh E 3.5 mph5.6 kmh 29.76 in1007.8 mb - 0.00 in0.0 mm 0.00 in0.0 mm
03:40 PM 34.3°F1.3°C 27.2°F-2.7°C 75% 4.6 mph ESE7.4 kmh ESE 6.9 mph11.1 kmh 29.76 in1007.8 mb - 0.00 in0.0 mm 0.00 in0.0 mm
03:45 PM 34.2°F1.2°C 27.1°F-2.7°C 75% 3.5 mph NE5.6 kmh NE 3.5 mph5.6 kmh 29.75 in1007.5 mb - 0.00 in0.0 mm 0.00 in0.0 mm
03:50 PM 34.2°F1.2°C 27.1°F-2.7°C 75% 3.5 mph E5.6 kmh E 4.6 mph7.4 kmh 29.75 in1007.5 mb - 0.00 in0.0 mm 0.00 in0.0 mm
03:55 PM 34.2°F1.2°C 27.4°F-2.6°C 76% 2.3 mph ENE3.7 kmh ENE 3.5 mph5.6 kmh 29.75 in1007.5 mb - 0.00 in0.0 mm 0.00 in0.0 mm
04:00 PM 34.1°F1.2°C 27.3°F-2.6°C 76% 3.5 mph E5.6 kmh E 4.6 mph7.4 kmh 29.75 in1007.5 mb - 0.00 in0.0 mm 0.00 in0.0 mm
04:10 PM 34.0°F1.1°C 27.2°F-2.7°C 76% 4.6 mph E7.4 kmh E 4.6 mph7.4 kmh 29.75 in1007.5 mb - 0.00 in0.0 mm 0.00 in0.0 mm
04:15 PM 34.0°F1.1°C 27.2°F-2.7°C 76% 3.5 mph E5.6 kmh E 4.6 mph7.4 kmh 29.75 in1007.5 mb - 0.00 in0.0 mm 0.00 in0.0 mm
04:20 PM 33.8°F1.0°C 27.7°F-2.4°C 78% 2.3 mph NE3.7 kmh NE 2.3 mph3.7 kmh 29.75 in1007.5 mb - 0.00 in0.0 mm 0.00 in0.0 mm
04:25 PM 33.8°F1.0°C 27.7°F-2.4°C 78% 2.3 mph NE3.7 kmh NE 2.3 mph3.7 kmh 29.75 in1007.5 mb - 0.00 in0.0 mm 0.00 in0.0 mm
04:30 PM 33.8°F1.0°C 27.7°F-2.4°C 78% 2.3 mph ENE3.7 kmh ENE 2.3 mph3.7 kmh 29.75 in1007.5 mb - 0.00 in0.0 mm 0.00 in0.0 mm
04:35 PM 33.6°F0.9°C 27.5°F-2.5°C 78% 3.5 mph E5.6 kmh E 3.5 mph5.6 kmh 29.75 in1007.5 mb - 0.00 in0.0 mm 0.00 in0.0 mm
04:40 PM 33.6°F0.9°C 27.5°F-2.5°C 78% 2.3 mph ENE3.7 kmh ENE 2.3 mph3.7 kmh 29.75 in1007.5 mb - 0.00 in0.0 mm 0.00 in0.0 mm
04:45 PM 33.4°F0.8°C 27.3°F-2.6°C 78% 1.2 mph ESE1.9 kmh ESE 2.3 mph3.7 kmh 29.75 in1007.5 mb - 0.00 in0.0 mm 0.00 in0.0 mm
04:50 PM 33.4°F0.8°C 27.3°F-2.6°C 78% 2.3 mph ENE3.7 kmh ENE 3.5 mph5.6 kmh 29.75 in1007.5 mb - 0.00 in0.0 mm 0.00 in0.0 mm
04:55 PM 33.4°F0.8°C 27.3°F-2.6°C 78% 2.3 mph ENE3.7 kmh ENE 2.3 mph3.7 kmh 29.75 in1007.5 mb - 0.00 in0.0 mm 0.00 in0.0 mm
05:00 PM 33.4°F0.8°C 27.6°F-2.4°C 79% 2.3 mph E3.7 kmh E 3.5 mph5.6 kmh 29.75 in1007.5 mb - 0.00 in0.0 mm 0.00 in0.0 mm
05:10 PM 33.3°F0.7°C 27.5°F-2.5°C 79% 2.3 mph ENE3.7 kmh ENE 3.5 mph5.6 kmh 29.75 in1007.5 mb - 0.00 in0.0 mm 0.00 in0.0 mm
05:15 PM 33.3°F0.7°C 27.5°F-2.5°C 79% 2.3 mph NE3.7 kmh NE 2.3 mph3.7 kmh 29.75 in1007.5 mb - 0.00 in0.0 mm 0.00 in0.0 mm
05:20 PM 33.3°F0.7°C 27.5°F-2.5°C 79% 2.3 mph NE3.7 kmh NE 2.3 mph3.7 kmh 29.75 in1007.5 mb - 0.00 in0.0 mm 0.00 in0.0 mm
05:25 PM 33.3°F0.7°C 27.5°F-2.5°C 79% 2.3 mph ENE3.7 kmh ENE 2.3 mph3.7 kmh 29.75 in1007.5 mb - 0.00 in0.0 mm 0.00 in0.0 mm
05:30 PM 33.1°F0.6°C 27.3°F-2.6°C 79% 2.3 mph ENE3.7 kmh ENE 3.5 mph5.6 kmh 29.75 in1007.5 mb - 0.00 in0.0 mm 0.00 in0.0 mm
05:35 PM 33.1°F0.6°C 27.3°F-2.6°C 79% 1.2 mph ENE1.9 kmh ENE 2.3 mph3.7 kmh 29.75 in1007.5 mb - 0.00 in0.0 mm 0.00 in0.0 mm
05:40 PM 33.1°F0.6°C 27.3°F-2.6°C 79% 2.3 mph E3.7 kmh E 3.5 mph5.6 kmh 29.75 in1007.5 mb - 0.00 in0.0 mm 0.00 in0.0 mm
05:45 PM 33.1°F0.6°C 27.3°F-2.6°C 79% 2.3 mph E3.7 kmh E 3.5 mph5.6 kmh 29.74 in1007.1 mb - 0.00 in0.0 mm 0.00 in0.0 mm
05:50 PM 32.9°F0.5°C 27.4°F-2.6°C 80% 3.5 mph ENE5.6 kmh ENE 3.5 mph5.6 kmh 29.74 in1007.1 mb - 0.00 in0.0 mm 0.00 in0.0 mm
05:55 PM 32.9°F0.5°C 27.4°F-2.6°C 80% 2.3 mph ENE3.7 kmh ENE 2.3 mph3.7 kmh 29.74 in1007.1 mb - 0.00 in0.0 mm 0.00 in0.0 mm
06:00 PM 32.7°F0.4°C 27.2°F-2.7°C 80% 2.3 mph E3.7 kmh E 3.5 mph5.6 kmh 29.74 in1007.1 mb - 0.00 in0.0 mm 0.00 in0.0 mm
06:10 PM 32.5°F0.3°C 27.4°F-2.6°C 81% 2.3 mph E3.7 kmh E 3.5 mph5.6 kmh 29.74 in1007.1 mb - 0.01 in0.3 mm 0.01 in0.3 mm
06:15 PM 32.4°F0.2°C 27.2°F-2.7°C 81% 2.3 mph ENE3.7 kmh ENE 3.5 mph5.6 kmh 29.74 in1007.1 mb - 0.01 in0.3 mm 0.01 in0.3 mm
06:20 PM 32.4°F0.2°C 27.5°F-2.5°C 82% 3.5 mph E5.6 kmh E 3.5 mph5.6 kmh 29.74 in1007.1 mb - 0.01 in0.3 mm 0.01 in0.3 mm
06:25 PM 32.4°F0.2°C 27.5°F-2.5°C 82% 2.3 mph E3.7 kmh E 3.5 mph5.6 kmh 29.74 in1007.1 mb - 0.01 in0.3 mm 0.01 in0.3 mm
06:30 PM 32.2°F0.1°C 27.3°F-2.6°C 82% 2.3 mph E3.7 kmh E 2.3 mph3.7 kmh 29.75 in1007.5 mb - 0.01 in0.3 mm 0.01 in0.3 mm
06:35 PM 32.2°F0.1°C 27.3°F-2.6°C 82% 2.3 mph E3.7 kmh E 2.3 mph3.7 kmh 29.75 in1007.5 mb - 0.01 in0.3 mm 0.01 in0.3 mm
06:40 PM 32.2°F0.1°C 27.6°F-2.4°C 83% 2.3 mph E3.7 kmh E 2.3 mph3.7 kmh 29.75 in1007.5 mb - 0.01 in0.3 mm 0.01 in0.3 mm
06:45 PM 32.2°F0.1°C 27.6°F-2.4°C 83% 2.3 mph E3.7 kmh E 2.3 mph3.7 kmh 29.75 in1007.5 mb - 0.01 in0.3 mm 0.01 in0.3 mm
06:50 PM 32.0°F0.0°C 27.4°F-2.6°C 83% 1.2 mph E1.9 kmh E 2.3 mph3.7 kmh 29.75 in1007.5 mb - 0.01 in0.3 mm 0.01 in0.3 mm
06:55 PM 32.0°F0.0°C 27.4°F-2.6°C 83% 2.3 mph E3.7 kmh E 2.3 mph3.7 kmh 29.75 in1007.5 mb - 0.01 in0.3 mm 0.01 in0.3 mm
07:00 PM 32.0°F0.0°C 27.4°F-2.6°C 83% 2.3 mph E3.7 kmh E 2.3 mph3.7 kmh 29.75 in1007.5 mb - 0.01 in0.3 mm 0.01 in0.3 mm
07:10 PM 32.0°F0.0°C 27.4°F-2.6°C 83% 2.3 mph ENE3.7 kmh ENE 2.3 mph3.7 kmh 29.75 in1007.5 mb - 0.00 in0.0 mm 0.01 in0.3 mm
07:15 PM 32.0°F0.0°C 27.4°F-2.6°C 83% 2.3 mph ENE3.7 kmh ENE 2.3 mph3.7 kmh 29.74 in1007.1 mb - 0.00 in0.0 mm 0.01 in0.3 mm
07:20 PM 32.0°F0.0°C 27.4°F-2.6°C 83% 2.3 mph ENE3.7 kmh ENE 2.3 mph3.7 kmh 29.74 in1007.1 mb - 0.00 in0.0 mm 0.01 in0.3 mm
07:25 PM 32.0°F0.0°C 27.7°F-2.4°C 84% 2.3 mph ENE3.7 kmh ENE 2.3 mph3.7 kmh 29.74 in1007.1 mb - 0.00 in0.0 mm 0.01 in0.3 mm
07:30 PM 32.0°F0.0°C 27.7°F-2.4°C 84% 2.3 mph ENE3.7 kmh ENE 2.3 mph3.7 kmh 29.74 in1007.1 mb - 0.00 in0.0 mm 0.01 in0.3 mm
07:35 PM 32.0°F0.0°C 27.7°F-2.4°C 84% 2.3 mph ENE3.7 kmh ENE 2.3 mph3.7 kmh 29.74 in1007.1 mb - 0.00 in0.0 mm 0.01 in0.3 mm
07:40 PM 32.0°F0.0°C 27.7°F-2.4°C 84% 2.3 mph ENE3.7 kmh ENE 2.3 mph3.7 kmh 29.74 in1007.1 mb - 0.00 in0.0 mm 0.01 in0.3 mm
07:45 PM 32.0°F0.0°C 27.7°F-2.4°C 84% 2.3 mph ENE3.7 kmh ENE 2.3 mph3.7 kmh 29.75 in1007.5 mb - 0.00 in0.0 mm 0.01 in0.3 mm
07:50 PM 32.0°F0.0°C 27.7°F-2.4°C 84% 1.2 mph ENE1.9 kmh ENE 2.3 mph3.7 kmh 29.75 in1007.5 mb - 0.00 in0.0 mm 0.01 in0.3 mm
07:55 PM 32.0°F0.0°C 27.7°F-2.4°C 84% 2.3 mph ENE3.7 kmh ENE 2.3 mph3.7 kmh 29.75 in1007.5 mb - 0.00 in0.0 mm 0.01 in0.3 mm
08:00 PM 32.0°F0.0°C 27.7°F-2.4°C 84% 2.3 mph ENE3.7 kmh ENE 2.3 mph3.7 kmh 29.73 in1006.8 mb - 0.00 in0.0 mm 0.01 in0.3 mm
08:10 PM 32.0°F0.0°C 27.7°F-2.4°C 84% 1.2 mph ENE1.9 kmh ENE 1.2 mph1.9 kmh 29.73 in1006.8 mb - 0.00 in0.0 mm 0.01 in0.3 mm
08:15 PM 32.0°F0.0°C 27.7°F-2.4°C 84% 1.2 mph ENE1.9 kmh ENE 2.3 mph3.7 kmh 29.73 in1006.8 mb - 0.00 in0.0 mm 0.01 in0.3 mm
08:20 PM 31.8°F-0.1°C 27.5°F-2.5°C 84% 1.2 mph ENE1.9 kmh ENE 2.3 mph3.7 kmh 29.73 in1006.8 mb - 0.00 in0.0 mm 0.01 in0.3 mm
08:25 PM 31.8°F-0.1°C 27.5°F-2.5°C 84% 2.3 mph ENE3.7 kmh ENE 2.3 mph3.7 kmh 29.73 in1006.8 mb - 0.00 in0.0 mm 0.01 in0.3 mm
08:30 PM 31.8°F-0.1°C 28.1°F-2.2°C 86% 1.2 mph ENE1.9 kmh ENE 2.3 mph3.7 kmh 29.73 in1006.8 mb - 0.00 in0.0 mm 0.01 in0.3 mm
08:35 PM 31.8°F-0.1°C 28.1°F-2.2°C 86% 1.2 mph ENE1.9 kmh ENE 2.3 mph3.7 kmh 29.73 in1006.8 mb - 0.00 in0.0 mm 0.01 in0.3 mm
08:40 PM 31.8°F-0.1°C 28.1°F-2.2°C 86% 2.3 mph ENE3.7 kmh ENE 2.3 mph3.7 kmh 29.73 in1006.8 mb - 0.00 in0.0 mm 0.01 in0.3 mm
08:45 PM 31.8°F-0.1°C 28.1°F-2.2°C 86% 1.2 mph ENE1.9 kmh ENE 2.3 mph3.7 kmh 29.73 in1006.8 mb - 0.00 in0.0 mm 0.01 in0.3 mm
08:50 PM 31.8°F-0.1°C 28.1°F-2.2°C 86% 1.2 mph ENE1.9 kmh ENE 1.2 mph1.9 kmh 29.73 in1006.8 mb - 0.00 in0.0 mm 0.01 in0.3 mm
08:55 PM 31.8°F-0.1°C 28.1°F-2.2°C 86% 1.2 mph ENE1.9 kmh ENE 2.3 mph3.7 kmh 29.73 in1006.8 mb - 0.00 in0.0 mm 0.01 in0.3 mm
09:00 PM 31.8°F-0.1°C 28.1°F-2.2°C 86% 1.2 mph ENE1.9 kmh ENE 2.3 mph3.7 kmh 29.73 in1006.8 mb - 0.00 in0.0 mm 0.01 in0.3 mm
09:10 PM 31.6°F-0.2°C 27.9°F-2.3°C 86% 1.2 mph ENE1.9 kmh ENE 2.3 mph3.7 kmh 29.73 in1006.8 mb - 0.00 in0.0 mm 0.01 in0.3 mm
09:15 PM 31.6°F-0.2°C 27.9°F-2.3°C 86% 1.2 mph ENE1.9 kmh ENE 1.2 mph1.9 kmh 29.73 in1006.8 mb - 0.00 in0.0 mm 0.01 in0.3 mm
09:20 PM 31.6°F-0.2°C 27.9°F-2.3°C 86% 2.3 mph ENE3.7 kmh ENE 2.3 mph3.7 kmh 29.73 in1006.8 mb - 0.00 in0.0 mm 0.01 in0.3 mm
09:25 PM 31.6°F-0.2°C 27.9°F-2.3°C 86% 1.2 mph ENE1.9 kmh ENE 2.3 mph3.7 kmh 29.73 in1006.8 mb - 0.00 in0.0 mm 0.01 in0.3 mm
09:30 PM 31.6°F-0.2°C 27.9°F-2.3°C 86% 2.3 mph ENE3.7 kmh ENE 2.3 mph3.7 kmh 29.72 in1006.4 mb - 0.00 in0.0 mm 0.01 in0.3 mm
09:35 PM 31.6°F-0.2°C 27.9°F-2.3°C 86% 1.2 mph ENE1.9 kmh ENE 2.3 mph3.7 kmh 29.72 in1006.4 mb - 0.00 in0.0 mm 0.01 in0.3 mm
09:40 PM 31.6°F-0.2°C 27.9°F-2.3°C 86% 1.2 mph ENE1.9 kmh ENE 2.3 mph3.7 kmh 29.72 in1006.4 mb - 0.00 in0.0 mm 0.01 in0.3 mm
09:45 PM 31.6°F-0.2°C 27.9°F-2.3°C 86% 2.3 mph ENE3.7 kmh ENE 2.3 mph3.7 kmh 29.72 in1006.4 mb - 0.00 in0.0 mm 0.01 in0.3 mm
09:50 PM 31.6°F-0.2°C 27.9°F-2.3°C 86% 1.2 mph ENE1.9 kmh ENE 2.3 mph3.7 kmh 29.72 in1006.4 mb - 0.00 in0.0 mm 0.01 in0.3 mm
09:55 PM 31.6°F-0.2°C 28.2°F-2.1°C 87% 2.3 mph ENE3.7 kmh ENE 2.3 mph3.7 kmh 29.72 in1006.4 mb - 0.00 in0.0 mm 0.01 in0.3 mm
10:00 PM 31.6°F-0.2°C 28.2°F-2.1°C 87% 2.3 mph ENE3.7 kmh ENE 2.3 mph3.7 kmh 29.72 in1006.4 mb - 0.00 in0.0 mm 0.01 in0.3 mm
10:10 PM 31.6°F-0.2°C 28.2°F-2.1°C 87% 1.2 mph ENE1.9 kmh ENE 2.3 mph3.7 kmh 29.72 in1006.4 mb - 0.00 in0.0 mm 0.01 in0.3 mm
10:15 PM 31.6°F-0.2°C 28.2°F-2.1°C 87% 2.3 mph ENE3.7 kmh ENE 2.3 mph3.7 kmh 29.72 in1006.4 mb - 0.00 in0.0 mm 0.01 in0.3 mm
10:20 PM 31.6°F-0.2°C 28.2°F-2.1°C 87% 2.3 mph ENE3.7 kmh ENE 2.3 mph3.7 kmh 29.72 in1006.4 mb - 0.00 in0.0 mm 0.01 in0.3 mm
10:25 PM 31.6°F-0.2°C 28.2°F-2.1°C 87% 2.3 mph ENE3.7 kmh ENE 2.3 mph3.7 kmh 29.72 in1006.4 mb - 0.00 in0.0 mm 0.01 in0.3 mm
10:30 PM 31.6°F-0.2°C 28.2°F-2.1°C 87% 1.2 mph ENE1.9 kmh ENE 1.2 mph1.9 kmh 29.72 in1006.4 mb - 0.00 in0.0 mm 0.01 in0.3 mm
10:35 PM 31.6°F-0.2°C 28.2°F-2.1°C 87% 1.2 mph ENE1.9 kmh ENE 2.3 mph3.7 kmh 29.72 in1006.4 mb - 0.00 in0.0 mm 0.01 in0.3 mm
10:40 PM 31.6°F-0.2°C 28.5°F-1.9°C 88% 2.3 mph ENE3.7 kmh ENE 2.3 mph3.7 kmh 29.72 in1006.4 mb - 0.00 in0.0 mm 0.01 in0.3 mm
10:45 PM 31.6°F-0.2°C 28.5°F-1.9°C 88% 1.2 mph ENE1.9 kmh ENE 1.2 mph1.9 kmh 29.71 in1006.1 mb - 0.00 in0.0 mm 0.01 in0.3 mm
10:50 PM 31.6°F-0.2°C 28.5°F-1.9°C 88% 2.3 mph ENE3.7 kmh ENE 2.3 mph3.7 kmh 29.71 in1006.1 mb - 0.00 in0.0 mm 0.01 in0.3 mm
10:55 PM 31.6°F-0.2°C 28.5°F-1.9°C 88% 2.3 mph ENE3.7 kmh ENE 2.3 mph3.7 kmh 29.71 in1006.1 mb - 0.00 in0.0 mm 0.01 in0.3 mm
11:00 PM 31.6°F-0.2°C 28.5°F-1.9°C 88% 2.3 mph ENE3.7 kmh ENE 2.3 mph3.7 kmh 29.72 in1006.4 mb - 0.00 in0.0 mm 0.01 in0.3 mm
11:10 PM 31.6°F-0.2°C 28.5°F-1.9°C 88% 2.3 mph ENE3.7 kmh ENE 2.3 mph3.7 kmh 29.72 in1006.4 mb - 0.00 in0.0 mm 0.01 in0.3 mm
11:15 PM 31.6°F-0.2°C 28.5°F-1.9°C 88% 2.3 mph ENE3.7 kmh ENE 3.5 mph5.6 kmh 29.71 in1006.1 mb - 0.00 in0.0 mm 0.01 in0.3 mm
11:20 PM 31.6°F-0.2°C 28.5°F-1.9°C 88% 2.3 mph ENE3.7 kmh ENE 2.3 mph3.7 kmh 29.71 in1006.1 mb - 0.00 in0.0 mm 0.01 in0.3 mm
11:25 PM 31.6°F-0.2°C 28.5°F-1.9°C 88% 1.2 mph ENE1.9 kmh ENE 2.3 mph3.7 kmh 29.71 in1006.1 mb - 0.00 in0.0 mm 0.01 in0.3 mm
11:30 PM 31.6°F-0.2°C 28.5°F-1.9°C 88% 2.3 mph ENE3.7 kmh ENE 2.3 mph3.7 kmh 29.71 in1006.1 mb - 0.00 in0.0 mm 0.01 in0.3 mm
11:35 PM 31.6°F-0.2°C 28.5°F-1.9°C 88% 2.3 mph ENE3.7 kmh ENE 2.3 mph3.7 kmh 29.71 in1006.1 mb - 0.00 in0.0 mm 0.01 in0.3 mm
11:40 PM 31.6°F-0.2°C 28.5°F-1.9°C 88% 2.3 mph ENE3.7 kmh ENE 3.5 mph5.6 kmh 29.71 in1006.1 mb - 0.00 in0.0 mm 0.01 in0.3 mm
11:45 PM 31.6°F-0.2°C 28.5°F-1.9°C 88% 2.3 mph ENE3.7 kmh ENE 2.3 mph3.7 kmh 29.71 in1006.1 mb - 0.00 in0.0 mm 0.01 in0.3 mm
11:50 PM 31.6°F-0.2°C 28.5°F-1.9°C 88% 1.2 mph ENE1.9 kmh ENE 2.3 mph3.7 kmh 29.71 in1006.1 mb - 0.00 in0.0 mm 0.01 in0.3 mm
11:55 PM 31.6°F-0.2°C 28.5°F-1.9°C 88% 2.3 mph ENE3.7 kmh ENE 3.5 mph5.6 kmh 29.71 in1006.1 mb - 0.00 in0.0 mm 0.01 in0.3 mm